Latest Weather Observations for Burketown Airport

IDQ60801

Issued at 6:05 pm EST Thursday 24 April 2014 (issued every 30 minutes, with the page automatically refreshed every 10 minutes)

About weather observations | Map of weather stations | Latest weather observations for QLD | Other Formats
Station Details ID: 029077 Name: BURKETOWN AIRPORT Lat: -17.75 Lon: 139.54 Height: 5.7 m
Data from the previous 72 hours. | See also: Recent months at Burketown Airport
Date/Time
EST
Temp
°C
App
Temp
°C
Dew
Point
Rel
Hum
%
Delta-T
°C
Wind Press
QNH
hPa
Press
MSL
hPa
Rain
since 9 am
mm
Dir
 
Spd
km/h
Gust
km/h
Spd
kts
Gust
kts
24/06:00pm 25.0 27.9 23.1 89 1.3 N 13 15 7 8 1009.9 1009.8 0.0
24/05:30pm 25.6 28.8 22.3 82 2.2 NNE 9 11 5 6 1009.6 - 0.0
24/05:00pm 26.2 29.1 21.8 77 2.9 NE 9 13 5 7 1009.5 - 0.0
24/04:30pm 27.0 29.4 21.5 72 3.7 ENE 11 17 6 9 1009.3 - 0.0
24/04:00pm 26.9 27.7 21.4 72 3.7 E 19 22 10 12 1009.3 - 0.0
24/03:30pm 27.0 27.7 21.5 72 3.7 E 20 26 11 14 1009.4 - 0.0
24/03:00pm 26.8 27.4 21.3 72 3.7 E 20 28 11 15 1009.6 1009.5 0.0
24/02:30pm 27.3 28.4 22.3 74 3.4 E 20 26 11 14 1009.6 - 0.0
24/02:00pm 27.2 27.5 22.2 74 3.4 E 24 30 13 16 1009.8 - 0.0
24/01:30pm 26.8 27.3 22.0 75 3.2 E 22 30 12 16 1010.2 - 0.0
24/01:00pm 26.0 27.2 22.5 81 2.4 E 20 28 11 15 1010.9 - 0.0
24/12:30pm 26.1 27.7 22.8 82 2.2 ESE 19 24 10 13 1011.3 - 0.0
24/12:00pm 25.8 27.3 22.7 83 2.1 ESE 19 26 10 14 1011.6 1011.5 0.0
24/11:30am 25.2 27.1 23.4 90 1.2 ESE 19 24 10 13 1011.9 - 0.0
24/11:00am 23.8 26.0 23.3 97 0.3 SE 17 22 9 12 1012.4 - 0.0
24/10:30am 24.0 26.2 23.3 96 0.5 ESE 17 22 9 12 1012.6 - 0.0
24/10:00am 23.6 25.7 23.1 97 0.3 SE 17 22 9 12 1012.7 - 0.0
24/09:30am 23.4 26.1 22.9 97 0.3 SE 13 17 7 9 1012.7 - 0.0
24/09:00am 23.2 26.5 23.2 100 0.0 SSE 11 15 6 8 1012.4 1012.3 6.8
24/08:30am 22.5 25.0 22.5 100 0.0 S 13 17 7 9 1011.9 - 6.8
24/08:00am 22.4 25.3 22.4 100 0.0 SSE 11 13 6 7 1011.8 - 6.4
24/07:30am 22.5 25.8 22.5 100 0.0 S 9 11 5 6 1011.5 - 5.8
24/07:00am 22.4 26.0 22.4 100 0.0 SE 7 11 4 6 1011.0 - 5.8
24/06:30am 22.2 25.3 22.2 100 0.0 SSE 9 11 5 6 1010.4 - 5.8
24/06:00am 22.3 25.9 22.3 100 0.0 S 7 9 4 5 1010.2 1010.1 5.8
24/05:30am 22.2 25.7 22.2 100 0.0 S 7 11 4 6 1010.1 - 5.8
24/05:00am 22.1 24.6 21.8 98 0.2 S 11 13 6 7 1009.8 - 5.8
24/04:30am 22.1 24.9 21.6 97 0.3 SSE 9 13 5 7 1009.6 - 5.8
24/04:00am 22.1 24.8 21.4 96 0.5 S 9 13 5 7 1009.5 - 5.8
24/03:30am 22.2 24.9 21.4 95 0.5 SSE 9 11 5 6 1009.5 - 5.8
24/03:00am 22.3 25.3 21.3 94 0.7 SSE 7 9 4 5 1009.5 1009.4 5.8
24/02:30am 22.4 25.3 21.0 92 0.9 ESE 7 11 4 6 1009.8 - 5.8
24/02:00am 22.4 24.6 21.2 93 0.8 E 11 15 6 8 1010.1 - 5.8
24/01:30am 22.4 24.1 21.0 92 0.9 ESE 13 15 7 8 1010.4 - 5.8
24/01:00am 22.5 23.9 21.1 92 0.9 ESE 15 19 8 10 1010.9 - 5.8
24/12:30am 22.4 23.5 21.2 93 0.8 ESE 17 20 9 11 1011.2 - 5.8
24/12:00am 22.1 23.8 21.6 97 0.3 ESE 15 17 8 9 1011.7 1011.6 5.8
 
Date/Time
EST
Temp
°C
App
Temp
°C
Dew
Point
Rel
Hum
%
Delta-T
°C
Wind Press
QNH
hPa
Press
MSL
hPa
Rain
since 9 am
mm
Dir
 
Spd
km/h
Gust
km/h
Spd
kts
Gust
kts
23/11:30pm 21.9 23.5 21.4 97 0.3 SE 15 19 8 10 1012.1 - 5.8
23/11:00pm 21.9 23.8 21.4 97 0.3 SE 13 17 7 9 1012.4 - 5.8
23/10:30pm 22.1 23.8 21.6 97 0.3 SE 15 19 8 10 1012.7 - 5.8
23/10:00pm 22.2 23.9 21.7 97 0.3 SE 15 20 8 11 1013.0 - 5.8
23/09:30pm 22.4 24.2 21.9 97 0.3 SE 15 19 8 10 1013.2 - 5.8
23/09:00pm 22.5 24.0 22.0 97 0.3 SE 17 22 9 12 1013.0 1012.9 5.8
23/08:30pm 22.6 23.6 22.1 97 0.3 SE 20 28 11 15 1012.9 - 5.8
23/08:00pm 22.7 24.0 22.4 98 0.2 SE 19 26 10 14 1012.6 - 5.8
23/07:30pm 22.7 24.1 22.5 99 0.1 SE 19 22 10 12 1012.3 - 5.8
23/07:00pm 22.6 24.4 22.6 100 0.0 SE 17 22 9 12 1012.0 - 5.8
23/06:30pm 22.5 23.8 22.3 99 0.1 SSE 19 30 10 16 1012.0 - 5.8
23/06:00pm 23.0 23.2 22.0 94 0.7 SSE 24 33 13 18 1011.9 1011.8 5.8
23/05:30pm 23.6 24.9 22.6 94 0.7 SSE 20 28 11 15 1011.7 - 5.8
23/05:00pm 23.8 24.6 22.4 92 0.9 SSE 22 30 12 16 1011.5 - 5.8
23/04:30pm 23.7 24.3 22.1 91 1.1 SSE 22 30 12 16 1011.5 - 5.8
23/04:00pm 24.1 24.2 22.5 91 1.1 SSE 26 33 14 18 1011.6 - 5.8
23/03:30pm 24.3 25.2 22.6 90 1.1 SSE 22 28 12 15 1011.5 - 5.8
23/03:00pm 24.3 24.6 22.2 88 1.4 SSE 24 33 13 18 1011.4 1011.3 5.8
23/02:30pm 24.3 24.6 22.2 88 1.4 SE 24 30 13 16 1011.8 - 5.8
23/02:00pm 25.0 25.9 22.7 87 1.5 SE 22 30 12 16 1012.2 - 5.8
23/01:30pm 24.8 26.3 23.0 90 1.2 SE 20 26 11 14 1012.6 - 5.8
23/01:00pm 24.6 26.4 23.6 94 0.7 SE 20 26 11 14 1012.9 - 5.8
23/12:30pm 23.6 25.3 23.4 99 0.1 SE 20 26 11 14 1013.4 - 5.8
23/12:00pm 23.3 24.6 23.3 100 0.0 SE 22 28 12 15 1014.0 1013.9 5.8
23/11:30am 22.9 24.3 22.9 100 0.0 SE 20 26 11 14 1014.5 - 5.4
23/11:00am 23.0 24.7 23.0 100 0.0 SE 19 24 10 13 1014.5 - 4.6
23/10:30am 22.8 24.7 22.8 100 0.0 SE 17 22 9 12 1014.8 - 1.8
23/10:00am 22.9 23.6 22.9 100 0.0 SE 24 33 13 18 1014.5 - 0.2
23/09:30am 22.9 23.9 22.9 100 0.0 SE 22 32 12 17 1014.2 - 0.2
23/09:00am 22.7 23.2 22.7 100 0.0 SE 24 32 13 17 1013.8 1013.7 35.0
23/08:30am 22.6 23.5 22.6 100 0.0 SE 22 33 12 18 1013.7 - 35.0
23/08:00am 22.5 23.3 22.5 100 0.0 SE 22 32 12 17 1013.3 - 34.4
23/07:30am 22.5 23.3 22.5 100 0.0 E 22 28 12 15 1013.0 - 32.8
23/07:00am 22.2 24.2 22.2 100 0.0 ESE 15 20 8 11 1012.7 - 31.4
23/06:30am 22.3 22.6 22.3 100 0.0 ESE 24 30 13 16 1012.2 - 28.6
23/06:00am 22.7 24.2 22.7 100 0.0 ESE 19 26 10 14 1011.9 1011.8 20.8
23/05:30am 22.8 23.0 22.8 100 0.0 ESE 26 33 14 18 1011.6 - 11.6
23/05:00am 22.8 23.7 22.6 99 0.1 SE 22 30 12 16 1011.1 - 4.0
23/04:30am 23.4 24.7 22.4 94 0.7 SE 19 24 10 13 1011.2 - 3.0
23/04:00am 23.8 26.2 22.2 91 1.1 SE 13 17 7 9 1011.0 - 3.0
23/03:30am 23.9 25.9 22.3 91 1.1 SE 15 19 8 10 1011.1 - 3.0
23/03:00am 24.1 26.7 22.7 92 0.9 ESE 13 19 7 10 1011.1 1011.0 3.0
23/02:30am 24.1 27.0 23.2 95 0.6 SE 13 19 7 10 1011.4 - 3.0
23/02:00am 24.1 25.9 23.2 95 0.6 ESE 19 24 10 13 1011.5 - 3.0
23/01:30am 24.1 26.8 23.4 96 0.5 SE 15 20 8 11 1011.6 - 3.0
23/01:00am 24.1 27.1 23.4 96 0.5 ESE 13 15 7 8 1012.1 - 3.0
23/12:30am 24.1 27.6 23.6 97 0.3 SSE 11 17 6 9 1012.3 - 3.0
23/12:00am 24.3 26.3 23.6 96 0.5 E 19 24 10 13 1012.2 1012.1 3.0
 
Date/Time
EST
Temp
°C
App
Temp
°C
Dew
Point
Rel
Hum
%
Delta-T
°C
Wind Press
QNH
hPa
Press
MSL
hPa
Rain
since 9 am
mm
Dir
 
Spd
km/h
Gust
km/h
Spd
kts
Gust
kts
22/11:30pm 24.2 26.5 23.5 96 0.5 E 17 22 9 12 1012.3 - 3.0
22/11:00pm 24.4 27.6 23.7 96 0.5 E 13 17 7 9 1012.6 - 3.0
22/10:30pm 24.6 27.4 23.7 95 0.6 E 15 20 8 11 1012.7 - 3.0
22/10:00pm 24.5 27.4 23.8 96 0.5 ESE 15 20 8 11 1012.6 - 3.0
22/09:30pm 24.5 27.4 23.8 96 0.5 E 15 20 8 11 1012.8 - 3.0
22/09:00pm 24.6 27.5 23.9 96 0.5 E 15 20 8 11 1012.7 1012.6 3.0
22/08:30pm 24.6 29.2 24.1 97 0.3 SE 7 9 4 5 1012.8 - 3.0
22/08:00pm 24.6 29.1 23.9 96 0.5 E 7 9 4 5 1012.6 - 3.0
22/07:30pm 24.6 28.4 24.1 97 0.3 ESE 11 13 6 7 1012.4 - 3.0
22/07:00pm 24.5 27.5 24.0 97 0.3 SE 15 19 8 10 1012.3 - 3.0
22/06:30pm 24.9 26.3 22.6 87 1.5 E 19 24 10 13 1012.2 - 0.4
22/06:00pm 27.5 28.5 21.8 71 3.8 ENE 19 24 10 13 1012.0 1011.9 0.0
22/05:30pm 28.4 30.2 21.9 68 4.4 NE 15 19 8 10 1011.9 - 0.0
22/05:00pm 28.9 30.1 21.4 64 5.0 ENE 17 22 9 12 1011.6 - 0.0
22/04:30pm 29.5 30.5 21.7 63 5.2 E 19 22 10 12 1011.4 - 0.0
22/04:00pm 30.4 30.8 21.8 60 5.8 E 22 32 12 17 1011.2 - 0.0
22/03:30pm 30.6 31.4 21.7 59 6.0 E 20 26 11 14 1011.2 - 0.0
22/03:00pm 32.8 33.9 22.0 53 7.4 NE 19 26 10 14 1011.1 1011.0 0.0
22/02:30pm 32.8 33.4 21.0 50 7.9 ENE 19 26 10 14 1011.2 - 0.0
22/02:00pm 32.3 33.4 22.4 56 6.8 NE 20 28 11 15 1011.6 - 0.0
22/01:30pm 31.8 32.2 21.0 52 7.2 NE 20 32 11 17 1012.0 - 0.0
22/01:00pm 31.3 32.3 21.8 57 6.4 ENE 19 26 10 14 1012.6 - 0.0
22/12:30pm 30.8 32.0 22.1 59 5.9 ENE 19 24 10 13 1013.1 - 0.0
22/12:00pm 31.0 32.0 21.8 58 6.2 ENE 19 26 10 14 1013.5 1013.4 0.0
22/11:30am 31.2 32.1 21.9 57 6.3 ENE 20 28 11 15 1013.9 - 0.0
22/11:00am 30.7 32.0 22.3 61 5.7 ENE 19 24 10 13 1014.2 - 0.0
22/10:30am 30.9 31.7 22.5 61 5.7 ENE 22 30 12 16 1014.3 - 0.0
22/10:00am 31.0 33.0 23.9 66 4.9 ENE 20 28 11 15 1014.2 - 0.0
22/09:30am 29.6 30.7 23.1 68 4.5 NE 22 28 12 15 1014.2 - 0.0
22/09:00am 28.5 30.3 23.2 73 3.6 ENE 19 30 10 16 1014.1 1014.0 0.0
22/08:30am 26.2 29.0 22.3 79 2.6 E 11 15 6 8 1013.8 - 0.0
22/08:00am 24.4 26.4 19.9 76 2.9 E 9 11 5 6 1013.7 - 0.0
22/07:30am 21.6 24.7 20.2 92 0.9 E 4 7 2 4 1013.4 - 0.0
22/07:00am 20.2 23.2 18.5 90 1.1 CALM 0 0 0 0 1013.0 - 0.0
22/06:30am 20.4 22.0 18.3 88 1.3 E 7 11 4 6 1012.9 - 0.0
22/06:00am 20.3 20.7 18.2 88 1.3 E 13 19 7 10 1012.7 1012.6 0.0
22/05:30am 21.0 22.6 17.8 82 2.0 S 6 7 3 4 1012.2 - 0.0
22/05:00am 20.9 21.7 18.1 84 1.7 S 11 13 6 7 1012.0 - 0.0
22/04:30am 20.8 21.4 17.8 83 1.9 SSW 11 11 6 6 1011.8 - 0.0
22/04:00am 20.9 22.1 18.3 85 1.6 SSW 9 11 5 6 1011.8 - 0.0
22/03:30am 20.6 21.7 18.0 85 1.6 SSW 9 11 5 6 1011.7 - 0.0
22/03:00am 20.7 22.2 18.1 85 1.6 SW 7 9 4 5 1011.7 1011.6 0.0
22/02:30am 21.4 23.2 18.8 85 1.6 SSW 7 9 4 5 1011.9 - 0.0
22/02:00am 20.8 21.8 18.7 88 1.3 SSW 11 13 6 7 1012.1 - 0.0
22/01:30am 21.0 22.1 18.8 87 1.4 SSW 11 13 6 7 1012.2 - 0.0
22/01:00am 21.1 22.4 19.4 90 1.1 S 11 13 6 7 1012.6 - 0.0
22/12:30am 21.6 23.8 19.7 89 1.2 SE 7 7 4 4 1013.0 - 0.0
22/12:00am 21.6 23.3 19.3 87 1.5 SE 9 9 5 5 1013.1 1013.0 0.0
 
Date/Time
EST
Temp
°C
App
Temp
°C
Dew
Point
Rel
Hum
%
Delta-T
°C
Wind Press
QNH
hPa
Press
MSL
hPa
Rain
since 9 am
mm
Dir
 
Spd
km/h
Gust
km/h
Spd
kts
Gust
kts
21/11:30pm 22.3 24.7 20.0 87 1.5 SSW 7 9 4 5 1012.9 - 0.0
21/11:00pm 21.9 23.3 19.6 87 1.5 WSW 11 11 6 6 1012.7 - 0.0
21/10:30pm 22.0 23.7 20.1 89 1.2 W 11 11 6 6 1012.9 - 0.0
21/10:00pm 22.2 24.0 20.3 89 1.2 WNW 11 11 6 6 1013.0 - 0.0
21/09:30pm 22.6 25.2 20.5 88 1.4 NW 7 11 4 6 1013.2 - 0.0
21/09:00pm 23.3 26.0 20.6 85 1.8 NW 7 9 4 5 1013.2 1013.1 0.0
21/08:30pm 23.7 26.4 20.6 83 2.0 NW 7 11 4 6 1013.0 - 0.0
21/08:00pm 23.9 26.0 20.2 80 2.4 NNW 9 11 5 6 1012.7 - 0.0
21/07:30pm 24.8 26.3 19.8 74 3.2 N 11 13 6 7 1012.4 - 0.0
21/07:00pm 25.4 26.5 18.8 67 4.2 N 11 13 6 7 1012.2 - 0.0
21/06:30pm 26.9 27.7 18.2 59 5.5 NNE 11 13 6 7 1012.0 - 0.0

Other Formats:

Comma delimited format used in spreadsheet applications
http://www.bom.gov.au/fwo/IDQ60801/IDQ60801.94260.axf

JavaScript Object Notation format (JSON) in row-major order
http://www.bom.gov.au/fwo/IDQ60801/IDQ60801.94260.json